sensor_id;sensor_type;location;lat;lon;timestamp;P1;durP1;ratioP1;P2;durP2;ratioP2
35679;SDS011;21803;53.586;10.040;2023-07-02T04:01:43;2.47;;;1.20;;
35679;SDS011;21803;53.586;10.040;2023-07-02T04:04:09;2.08;;;1.20;;
35679;SDS011;21803;53.586;10.040;2023-07-02T04:06:36;2.47;;;1.02;;
35679;SDS011;21803;53.586;10.040;2023-07-02T04:09:02;2.25;;;1.35;;
35679;SDS011;21803;53.586;10.040;2023-07-02T04:11:29;1.73;;;1.20;;
35679;SDS011;21803;53.586;10.040;2023-07-02T04:13:54;1.92;;;1.30;;
35679;SDS011;21803;53.586;10.040;2023-07-02T04:16:20;2.65;;;1.30;;
35679;SDS011;21803;53.586;10.040;2023-07-02T04:18:45;2.15;;;1.20;;
35679;SDS011;21803;53.586;10.040;2023-07-02T04:21:11;1.73;;;1.25;;
35679;SDS011;21803;53.586;10.040;2023-07-02T04:23:36;2.97;;;1.50;;
35679;SDS011;21803;53.586;10.040;2023-07-02T04:26:02;2.83;;;1.45;;
35679;SDS011;21803;53.586;10.040;2023-07-02T04:28:27;2.42;;;1.33;;
35679;SDS011;21803;53.586;10.040;2023-07-02T04:30:53;2.28;;;1.33;;
35679;SDS011;21803;53.586;10.040;2023-07-02T04:33:18;1.90;;;1.33;;
35679;SDS011;21803;53.586;10.040;2023-07-02T04:35:44;2.45;;;1.50;;
35679;SDS011;21803;53.586;10.040;2023-07-02T04:38:09;1.65;;;1.45;;
35679;SDS011;21803;53.586;10.040;2023-07-02T04:40:35;3.00;;;1.23;;
35679;SDS011;21803;53.586;10.040;2023-07-02T04:43:01;1.70;;;1.20;;
35679;SDS011;21803;53.586;10.040;2023-07-02T04:45:27;2.92;;;1.58;;
35679;SDS011;21803;53.586;10.040;2023-07-02T04:47:57;3.30;;;1.50;;
35679;SDS011;21803;53.586;10.040;2023-07-02T04:50:22;3.25;;;1.73;;
35679;SDS011;21803;53.586;10.040;2023-07-02T04:52:48;4.00;;;1.67;;
35679;SDS011;21803;53.586;10.040;2023-07-02T04:55:13;2.78;;;1.80;;
35679;SDS011;21803;53.586;10.040;2023-07-02T04:57:39;2.10;;;1.80;;
35679;SDS011;21803;53.586;10.040;2023-07-02T05:00:05;2.20;;;1.50;;
35679;SDS011;21803;53.586;10.040;2023-07-02T05:02:31;2.75;;;1.60;;
35679;SDS011;21803;53.586;10.040;2023-07-02T05:04:56;1.80;;;1.40;;
35679;SDS011;21803;53.586;10.040;2023-07-02T05:07:22;3.08;;;1.70;;
35679;SDS011;21803;53.586;10.040;2023-07-02T05:09:47;3.25;;;2.00;;
35679;SDS011;21803;53.586;10.040;2023-07-02T05:12:18;3.42;;;1.77;;
35679;SDS011;21803;53.586;10.040;2023-07-02T05:14:44;3.22;;;1.98;;
35679;SDS011;21803;53.586;10.040;2023-07-02T05:17:10;3.33;;;1.83;;
35679;SDS011;21803;53.586;10.040;2023-07-02T05:19:36;4.20;;;2.00;;
35679;SDS011;21803;53.586;10.040;2023-07-02T05:22:01;2.80;;;1.88;;
35679;SDS011;21803;53.586;10.040;2023-07-02T05:24:27;4.05;;;2.10;;
35679;SDS011;21803;53.586;10.040;2023-07-02T05:26:52;3.10;;;2.00;;
35679;SDS011;21803;53.586;10.040;2023-07-02T05:29:18;2.53;;;1.70;;
35679;SDS011;21803;53.586;10.040;2023-07-02T05:31:44;2.70;;;1.70;;
35679;SDS011;21803;53.586;10.040;2023-07-02T05:34:09;3.72;;;1.90;;
35679;SDS011;21803;53.586;10.040;2023-07-02T05:36:35;3.25;;;1.92;;
35679;SDS011;21803;53.586;10.040;2023-07-02T05:39:01;3.35;;;2.05;;
35679;SDS011;21803;53.586;10.040;2023-07-02T05:41:26;3.65;;;2.13;;
35679;SDS011;21803;53.586;10.040;2023-07-02T05:43:58;5.53;;;2.10;;
35679;SDS011;21803;53.586;10.040;2023-07-02T05:46:24;4.95;;;2.50;;
35679;SDS011;21803;53.586;10.040;2023-07-02T05:48:50;4.13;;;2.30;;
35679;SDS011;21803;53.586;10.040;2023-07-02T05:51:22;3.50;;;2.13;;
35679;SDS011;21803;53.586;10.040;2023-07-02T05:53:50;2.70;;;2.10;;
35679;SDS011;21803;53.586;10.040;2023-07-02T05:56:16;2.88;;;2.17;;
35679;SDS011;21803;53.586;10.040;2023-07-02T05:58:43;4.35;;;2.70;;
35679;SDS011;21803;53.586;10.040;2023-07-02T06:01:10;4.05;;;2.40;;
35679;SDS011;21803;53.586;10.040;2023-07-02T06:03:36;5.35;;;2.40;;
35679;SDS011;21803;53.586;10.040;2023-07-02T06:06:02;3.72;;;2.15;;
35679;SDS011;21803;53.586;10.040;2023-07-02T06:08:28;3.95;;;2.65;;
35679;SDS011;21803;53.586;10.040;2023-07-02T06:10:53;5.03;;;2.60;;
35679;SDS011;21803;53.586;10.040;2023-07-02T06:13:19;4.13;;;2.40;;
35679;SDS011;21803;53.586;10.040;2023-07-02T06:15:44;5.53;;;2.60;;
35679;SDS011;21803;53.586;10.040;2023-07-02T06:18:11;5.65;;;2.65;;
35679;SDS011;21803;53.586;10.040;2023-07-02T06:20:37;4.65;;;2.83;;
35679;SDS011;21803;53.586;10.040;2023-07-02T06:23:03;4.18;;;2.42;;
35679;SDS011;21803;53.586;10.040;2023-07-02T06:25:28;4.60;;;2.50;;
35679;SDS011;21803;53.586;10.040;2023-07-02T06:27:54;4.63;;;2.67;;
35679;SDS011;21803;53.586;10.040;2023-07-02T06:30:23;4.13;;;2.67;;
35679;SDS011;21803;53.586;10.040;2023-07-02T06:32:49;4.80;;;2.63;;
35679;SDS011;21803;53.586;10.040;2023-07-02T06:35:14;3.13;;;2.15;;
35679;SDS011;21803;53.586;10.040;2023-07-02T06:37:40;5.47;;;2.88;;
35679;SDS011;21803;53.586;10.040;2023-07-02T06:40:05;5.40;;;2.60;;
35679;SDS011;21803;53.586;10.040;2023-07-02T06:42:31;5.47;;;3.05;;
35679;SDS011;21803;53.586;10.040;2023-07-02T06:44:58;5.15;;;2.63;;
35679;SDS011;21803;53.586;10.040;2023-07-02T06:47:23;5.13;;;2.90;;
35679;SDS011;21803;53.586;10.040;2023-07-02T06:49:49;6.05;;;3.20;;
35679;SDS011;21803;53.586;10.040;2023-07-02T06:52:16;6.13;;;3.10;;
35679;SDS011;21803;53.586;10.040;2023-07-02T06:54:42;6.22;;;2.90;;
35679;SDS011;21803;53.586;10.040;2023-07-02T06:57:07;5.65;;;2.90;;
35679;SDS011;21803;53.586;10.040;2023-07-02T06:59:33;5.28;;;2.88;;
35679;SDS011;21803;53.586;10.040;2023-07-02T07:01:58;5.38;;;2.95;;
35679;SDS011;21803;53.586;10.040;2023-07-02T07:04:24;6.00;;;3.15;;
35679;SDS011;21803;53.586;10.040;2023-07-02T07:06:50;6.15;;;3.00;;
35679;SDS011;21803;53.586;10.040;2023-07-02T07:09:15;5.57;;;3.20;;
35679;SDS011;21803;53.586;10.040;2023-07-02T07:11:42;5.65;;;3.10;;
35679;SDS011;21803;53.586;10.040;2023-07-02T07:14:08;5.55;;;3.55;;
35679;SDS011;21803;53.586;10.040;2023-07-02T07:16:34;6.28;;;3.17;;
35679;SDS011;21803;53.586;10.040;2023-07-02T07:18:59;6.18;;;3.10;;
35679;SDS011;21803;53.586;10.040;2023-07-02T07:21:25;5.50;;;3.28;;
35679;SDS011;21803;53.586;10.040;2023-07-02T07:23:51;6.45;;;3.35;;
35679;SDS011;21803;53.586;10.040;2023-07-02T07:26:16;5.20;;;3.10;;
35679;SDS011;21803;53.586;10.040;2023-07-02T07:28:42;6.72;;;3.05;;
35679;SDS011;21803;53.586;10.040;2023-07-02T07:31:07;4.28;;;2.97;;
35679;SDS011;21803;53.586;10.040;2023-07-02T07:33:33;5.40;;;3.28;;
35679;SDS011;21803;53.586;10.040;2023-07-02T07:35:58;5.03;;;3.33;;
35679;SDS011;21803;53.586;10.040;2023-07-02T07:38:24;6.35;;;3.60;;
35679;SDS011;21803;53.586;10.040;2023-07-02T07:40:51;5.25;;;3.10;;
35679;SDS011;21803;53.586;10.040;2023-07-02T07:43:16;5.25;;;3.10;;
35679;SDS011;21803;53.586;10.040;2023-07-02T07:45:42;6.85;;;3.30;;
35679;SDS011;21803;53.586;10.040;2023-07-02T07:48:07;6.68;;;3.47;;
35679;SDS011;21803;53.586;10.040;2023-07-02T07:50:33;6.88;;;3.70;;
35679;SDS011;21803;53.586;10.040;2023-07-02T07:52:58;6.22;;;3.72;;
35679;SDS011;21803;53.586;10.040;2023-07-02T07:55:24;6.63;;;4.07;;
35679;SDS011;21803;53.586;10.040;2023-07-02T07:57:50;6.80;;;3.55;;
35679;SDS011;21803;53.586;10.040;2023-07-02T08:00:15;7.35;;;3.40;;
35679;SDS011;21803;53.586;10.040;2023-07-02T08:02:42;7.03;;;4.03;;
35679;SDS011;21803;53.586;10.040;2023-07-02T08:05:08;7.47;;;3.63;;
35679;SDS011;21803;53.586;10.040;2023-07-02T08:07:34;5.13;;;3.60;;
35679;SDS011;21803;53.586;10.040;2023-07-02T08:10:00;7.88;;;3.97;;
35679;SDS011;21803;53.586;10.040;2023-07-02T08:12:27;6.75;;;3.63;;
35679;SDS011;21803;53.586;10.040;2023-07-02T08:14:54;6.10;;;3.50;;
35679;SDS011;21803;53.586;10.040;2023-07-02T08:17:22;4.85;;;3.45;;
35679;SDS011;21803;53.586;10.040;2023-07-02T08:19:48;6.30;;;3.80;;
35679;SDS011;21803;53.586;10.040;2023-07-02T08:22:13;6.47;;;3.60;;
35679;SDS011;21803;53.586;10.040;2023-07-02T08:24:39;7.82;;;3.70;;
35679;SDS011;21803;53.586;10.040;2023-07-02T08:27:05;7.22;;;3.67;;
35679;SDS011;21803;53.586;10.040;2023-07-02T08:29:31;6.55;;;3.90;;
35679;SDS011;21803;53.586;10.040;2023-07-02T08:31:56;8.45;;;4.10;;
35679;SDS011;21803;53.586;10.040;2023-07-02T08:34:22;6.80;;;3.72;;
35679;SDS011;21803;53.586;10.040;2023-07-02T08:36:48;6.25;;;3.65;;
35679;SDS011;21803;53.586;10.040;2023-07-02T08:39:14;7.50;;;3.88;;
35679;SDS011;21803;53.586;10.040;2023-07-02T08:41:46;8.05;;;3.92;;
35679;SDS011;21803;53.586;10.040;2023-07-02T08:44:13;6.13;;;3.75;;
35679;SDS011;21803;53.586;10.040;2023-07-02T08:46:40;8.13;;;3.97;;
35679;SDS011;21803;53.586;10.040;2023-07-02T08:49:09;6.53;;;3.70;;
35679;SDS011;21803;53.586;10.040;2023-07-02T08:51:35;7.93;;;3.55;;
35679;SDS011;21803;53.586;10.040;2023-07-02T08:54:02;7.20;;;3.55;;
35679;SDS011;21803;53.586;10.040;2023-07-02T08:56:28;7.50;;;3.50;;
35679;SDS011;21803;53.586;10.040;2023-07-02T08:58:54;7.38;;;3.80;;
35679;SDS011;21803;53.586;10.040;2023-07-02T09:01:19;6.68;;;3.70;;
35679;SDS011;21803;53.586;10.040;2023-07-02T09:03:45;6.63;;;3.55;;
35679;SDS011;21803;53.586;10.040;2023-07-02T09:06:11;8.38;;;4.55;;
35679;SDS011;21803;53.586;10.040;2023-07-02T09:08:38;6.75;;;3.63;;
35679;SDS011;21803;53.586;10.040;2023-07-02T09:13:51;6.55;;;3.63;;
35679;SDS011;21803;53.586;10.040;2023-07-02T09:19:07;6.10;;;3.40;;
35679;SDS011;21803;53.586;10.040;2023-07-02T09:21:41;6.40;;;3.63;;
35679;SDS011;21803;53.586;10.040;2023-07-02T09:24:11;6.70;;;3.35;;
35679;SDS011;21803;53.586;10.040;2023-07-02T09:26:48;6.57;;;3.53;;
35679;SDS011;21803;53.586;10.040;2023-07-02T09:29:18;6.32;;;3.25;;
35679;SDS011;21803;53.586;10.040;2023-07-02T09:31:49;7.85;;;4.22;;
35679;SDS011;21803;53.586;10.040;2023-07-02T09:34:15;6.68;;;3.33;;
35679;SDS011;21803;53.586;10.040;2023-07-02T09:36:41;8.32;;;3.70;;
35679;SDS011;21803;53.586;10.040;2023-07-02T09:39:11;7.70;;;3.40;;
35679;SDS011;21803;53.586;10.040;2023-07-02T09:41:39;5.43;;;2.90;;
35679;SDS011;21803;53.586;10.040;2023-07-02T09:44:07;5.40;;;3.05;;
35679;SDS011;21803;53.586;10.040;2023-07-02T09:46:35;6.05;;;3.28;;
35679;SDS011;21803;53.586;10.040;2023-07-02T09:49:03;6.53;;;3.60;;
35679;SDS011;21803;53.586;10.040;2023-07-02T09:51:31;4.68;;;3.35;;
35679;SDS011;21803;53.586;10.040;2023-07-02T09:53:56;6.20;;;3.42;;
35679;SDS011;21803;53.586;10.040;2023-07-02T09:56:22;6.95;;;3.42;;
35679;SDS011;21803;53.586;10.040;2023-07-02T09:58:48;7.07;;;3.28;;
35679;SDS011;21803;53.586;10.040;2023-07-02T10:01:14;6.82;;;3.40;;
35679;SDS011;21803;53.586;10.040;2023-07-02T10:03:39;6.95;;;2.90;;
35679;SDS011;21803;53.586;10.040;2023-07-02T10:06:05;5.95;;;3.25;;
35679;SDS011;21803;53.586;10.040;2023-07-02T10:08:31;6.35;;;3.10;;
35679;SDS011;21803;53.586;10.040;2023-07-02T10:11:10;5.97;;;3.45;;
35679;SDS011;21803;53.586;10.040;2023-07-02T10:13:38;9.45;;;3.20;;
35679;SDS011;21803;53.586;10.040;2023-07-02T10:16:04;6.97;;;3.20;;
35679;SDS011;21803;53.586;10.040;2023-07-02T10:18:30;5.45;;;3.00;;
35679;SDS011;21803;53.586;10.040;2023-07-02T10:20:56;6.03;;;2.90;;
35679;SDS011;21803;53.586;10.040;2023-07-02T10:23:34;5.35;;;3.00;;
35679;SDS011;21803;53.586;10.040;2023-07-02T10:26:16;4.30;;;2.83;;
35679;SDS011;21803;53.586;10.040;2023-07-02T10:28:43;4.85;;;3.28;;
35679;SDS011;21803;53.586;10.040;2023-07-02T10:31:20;5.20;;;3.00;;
35679;SDS011;21803;53.586;10.040;2023-07-02T10:33:47;5.40;;;2.75;;
35679;SDS011;21803;53.586;10.040;2023-07-02T10:36:19;5.45;;;2.60;;
35679;SDS011;21803;53.586;10.040;2023-07-02T10:38:45;4.75;;;2.80;;
35679;SDS011;21803;53.586;10.040;2023-07-02T10:41:12;5.55;;;2.75;;
35679;SDS011;21803;53.586;10.040;2023-07-02T10:43:47;6.18;;;3.20;;
35679;SDS011;21803;53.586;10.040;2023-07-02T10:46:18;8.65;;;3.47;;
35679;SDS011;21803;53.586;10.040;2023-07-02T10:48:54;5.05;;;3.00;;
35679;SDS011;21803;53.586;10.040;2023-07-02T10:51:20;4.72;;;2.42;;
35679;SDS011;21803;53.586;10.040;2023-07-02T10:53:46;4.78;;;2.38;;
35679;SDS011;21803;53.586;10.040;2023-07-02T10:56:22;5.30;;;3.22;;
35679;SDS011;21803;53.586;10.040;2023-07-02T10:58:48;4.15;;;2.60;;
35679;SDS011;21803;53.586;10.040;2023-07-02T11:01:21;5.28;;;2.80;;
35679;SDS011;21803;53.586;10.040;2023-07-02T11:03:57;5.78;;;2.90;;
35679;SDS011;21803;53.586;10.040;2023-07-02T11:06:24;4.70;;;2.88;;
35679;SDS011;21803;53.586;10.040;2023-07-02T11:08:51;5.40;;;2.63;;
35679;SDS011;21803;53.586;10.040;2023-07-02T11:11:17;6.65;;;2.53;;
35679;SDS011;21803;53.586;10.040;2023-07-02T11:13:46;5.78;;;2.70;;
35679;SDS011;21803;53.586;10.040;2023-07-02T11:16:24;4.25;;;2.47;;
35679;SDS011;21803;53.586;10.040;2023-07-02T11:18:52;4.25;;;2.58;;
35679;SDS011;21803;53.586;10.040;2023-07-02T11:21:18;4.65;;;2.70;;
35679;SDS011;21803;53.586;10.040;2023-07-02T11:23:44;4.78;;;2.58;;
35679;SDS011;21803;53.586;10.040;2023-07-02T11:26:09;5.18;;;2.60;;
35679;SDS011;21803;53.586;10.040;2023-07-02T11:28:35;4.25;;;2.50;;
35679;SDS011;21803;53.586;10.040;2023-07-02T11:31:01;4.90;;;2.78;;
35679;SDS011;21803;53.586;10.040;2023-07-02T11:33:34;5.38;;;2.60;;
35679;SDS011;21803;53.586;10.040;2023-07-02T11:36:01;3.92;;;2.25;;
35679;SDS011;21803;53.586;10.040;2023-07-02T11:38:26;4.65;;;2.42;;
35679;SDS011;21803;53.586;10.040;2023-07-02T11:40:52;4.72;;;2.40;;
35679;SDS011;21803;53.586;10.040;2023-07-02T11:43:17;4.57;;;2.42;;
35679;SDS011;21803;53.586;10.040;2023-07-02T11:45:43;3.55;;;2.45;;
35679;SDS011;21803;53.586;10.040;2023-07-02T11:48:09;5.63;;;2.25;;
35679;SDS011;21803;53.586;10.040;2023-07-02T11:50:34;3.35;;;2.00;;
35679;SDS011;21803;53.586;10.040;2023-07-02T11:53:00;3.88;;;2.20;;
35679;SDS011;21803;53.586;10.040;2023-07-02T11:55:25;4.80;;;2.50;;
35679;SDS011;21803;53.586;10.040;2023-07-02T11:57:51;4.75;;;2.40;;
35679;SDS011;21803;53.586;10.040;2023-07-02T12:00:16;4.25;;;2.13;;
35679;SDS011;21803;53.586;10.040;2023-07-02T12:02:42;3.72;;;2.20;;
35679;SDS011;21803;53.586;10.040;2023-07-02T12:05:08;3.42;;;2.08;;
35679;SDS011;21803;53.586;10.040;2023-07-02T12:07:34;3.97;;;2.28;;
35679;SDS011;21803;53.586;10.040;2023-07-02T12:09:59;4.53;;;2.50;;
35679;SDS011;21803;53.586;10.040;2023-07-02T12:12:25;3.67;;;2.00;;
35679;SDS011;21803;53.586;10.040;2023-07-02T12:14:52;3.50;;;2.03;;
35679;SDS011;21803;53.586;10.040;2023-07-02T12:17:17;4.35;;;2.28;;
35679;SDS011;21803;53.586;10.040;2023-07-02T12:19:43;4.05;;;1.88;;
35679;SDS011;21803;53.586;10.040;2023-07-02T12:22:08;3.65;;;2.50;;
35679;SDS011;21803;53.586;10.040;2023-07-02T12:24:34;4.03;;;2.13;;
35679;SDS011;21803;53.586;10.040;2023-07-02T12:26:59;4.10;;;1.98;;
35679;SDS011;21803;53.586;10.040;2023-07-02T12:29:25;4.60;;;2.28;;
35679;SDS011;21803;53.586;10.040;2023-07-02T12:31:51;2.60;;;1.60;;
35679;SDS011;21803;53.586;10.040;2023-07-02T12:34:16;4.10;;;1.95;;
35679;SDS011;21803;53.586;10.040;2023-07-02T12:36:42;3.17;;;1.80;;
35679;SDS011;21803;53.586;10.040;2023-07-02T12:39:07;3.92;;;2.08;;
35679;SDS011;21803;53.586;10.040;2023-07-02T12:41:33;3.47;;;2.00;;
35679;SDS011;21803;53.586;10.040;2023-07-02T12:43:59;5.88;;;1.85;;
35679;SDS011;21803;53.586;10.040;2023-07-02T12:46:24;3.72;;;1.70;;
35679;SDS011;21803;53.586;10.040;2023-07-02T12:48:50;3.63;;;1.90;;
35679;SDS011;21803;53.586;10.040;2023-07-02T12:51:15;3.65;;;1.83;;
35679;SDS011;21803;53.586;10.040;2023-07-02T12:53:41;3.78;;;1.85;;
35679;SDS011;21803;53.586;10.040;2023-07-02T12:56:06;3.53;;;2.00;;
35679;SDS011;21803;53.586;10.040;2023-07-02T12:58:32;3.72;;;1.92;;
35679;SDS011;21803;53.586;10.040;2023-07-02T13:00:58;4.07;;;1.85;;
35679;SDS011;21803;53.586;10.040;2023-07-02T13:03:23;3.25;;;1.80;;
35679;SDS011;21803;53.586;10.040;2023-07-02T13:05:50;6.15;;;1.90;;
35679;SDS011;21803;53.586;10.040;2023-07-02T13:08:16;2.28;;;1.63;;
35679;SDS011;21803;53.586;10.040;2023-07-02T13:10:41;3.03;;;1.70;;
35679;SDS011;21803;53.586;10.040;2023-07-02T13:13:07;2.72;;;1.80;;
35679;SDS011;21803;53.586;10.040;2023-07-02T13:15:33;3.72;;;1.90;;
35679;SDS011;21803;53.586;10.040;2023-07-02T13:18:00;3.20;;;1.75;;
35679;SDS011;21803;53.586;10.040;2023-07-02T13:20:25;2.42;;;1.50;;
35679;SDS011;21803;53.586;10.040;2023-07-02T13:22:51;7.68;;;1.88;;
35679;SDS011;21803;53.586;10.040;2023-07-02T13:25:16;3.85;;;2.30;;
35679;SDS011;21803;53.586;10.040;2023-07-02T13:27:42;3.28;;;1.90;;
35679;SDS011;21803;53.586;10.040;2023-07-02T13:30:08;3.72;;;1.70;;
35679;SDS011;21803;53.586;10.040;2023-07-02T13:32:34;3.85;;;1.80;;
35679;SDS011;21803;53.586;10.040;2023-07-02T13:34:59;3.35;;;1.83;;
35679;SDS011;21803;53.586;10.040;2023-07-02T13:37:24;3.45;;;1.90;;
35679;SDS011;21803;53.586;10.040;2023-07-02T13:39:50;3.33;;;1.70;;
35679;SDS011;21803;53.586;10.040;2023-07-02T13:42:16;3.10;;;1.50;;
35679;SDS011;21803;53.586;10.040;2023-07-02T13:44:41;4.30;;;1.70;;
35679;SDS011;21803;53.586;10.040;2023-07-02T13:47:08;3.53;;;1.50;;
35679;SDS011;21803;53.586;10.040;2023-07-02T13:49:33;3.22;;;1.88;;
35679;SDS011;21803;53.586;10.040;2023-07-02T13:51:59;1.73;;;1.23;;
35679;SDS011;21803;53.586;10.040;2023-07-02T13:54:25;3.30;;;1.40;;
35679;SDS011;21803;53.586;10.040;2023-07-02T13:56:51;3.17;;;1.73;;
35679;SDS011;21803;53.586;10.040;2023-07-02T13:59:17;3.10;;;1.60;;
35679;SDS011;21803;53.586;10.040;2023-07-02T14:01:43;4.80;;;1.80;;
35679;SDS011;21803;53.586;10.040;2023-07-02T14:04:10;3.58;;;1.40;;
35679;SDS011;21803;53.586;10.040;2023-07-02T14:06:36;3.15;;;1.70;;
35679;SDS011;21803;53.586;10.040;2023-07-02T14:09:02;2.75;;;1.55;;
35679;SDS011;21803;53.586;10.040;2023-07-02T14:11:28;2.15;;;1.30;;
35679;SDS011;21803;53.586;10.040;2023-07-02T14:13:54;2.90;;;1.38;;
35679;SDS011;21803;53.586;10.040;2023-07-02T14:16:20;2.85;;;1.50;;
35679;SDS011;21803;53.586;10.040;2023-07-02T14:18:46;3.95;;;1.80;;
35679;SDS011;21803;53.586;10.040;2023-07-02T14:21:12;2.38;;;1.55;;
35679;SDS011;21803;53.586;10.040;2023-07-02T14:23:38;2.78;;;1.60;;
35679;SDS011;21803;53.586;10.040;2023-07-02T14:26:03;3.60;;;1.60;;
35679;SDS011;21803;53.586;10.040;2023-07-02T14:28:29;2.72;;;1.60;;
35679;SDS011;21803;53.586;10.040;2023-07-02T14:30:56;4.40;;;1.70;;
35679;SDS011;21803;53.586;10.040;2023-07-02T14:33:23;2.63;;;1.52;;
35679;SDS011;21803;53.586;10.040;2023-07-02T14:35:49;3.95;;;1.70;;
35679;SDS011;21803;53.586;10.040;2023-07-02T14:38:14;2.80;;;1.50;;
35679;SDS011;21803;53.586;10.040;2023-07-02T14:40:40;2.92;;;1.80;;
35679;SDS011;21803;53.586;10.040;2023-07-02T14:43:05;3.33;;;1.67;;
35679;SDS011;21803;53.586;10.040;2023-07-02T14:45:32;3.60;;;1.30;;
35679;SDS011;21803;53.586;10.040;2023-07-02T14:47:57;3.55;;;1.83;;
35679;SDS011;21803;53.586;10.040;2023-07-02T14:50:25;2.50;;;1.58;;
35679;SDS011;21803;53.586;10.040;2023-07-02T14:52:51;3.60;;;1.65;;
35679;SDS011;21803;53.586;10.040;2023-07-02T14:55:16;3.50;;;1.90;;
35679;SDS011;21803;53.586;10.040;2023-07-02T14:57:42;4.45;;;1.38;;
35679;SDS011;21803;53.586;10.040;2023-07-02T15:00:08;2.05;;;1.40;;
35679;SDS011;21803;53.586;10.040;2023-07-02T15:02:34;3.13;;;1.40;;
35679;SDS011;21803;53.586;10.040;2023-07-02T15:04:59;2.03;;;1.20;;
35679;SDS011;21803;53.586;10.040;2023-07-02T15:07:25;3.95;;;1.60;;
35679;SDS011;21803;53.586;10.040;2023-07-02T15:09:51;2.92;;;1.50;;
35679;SDS011;21803;53.586;10.040;2023-07-02T15:12:17;3.80;;;1.70;;
35679;SDS011;21803;53.586;10.040;2023-07-02T15:14:42;2.63;;;1.58;;
35679;SDS011;21803;53.586;10.040;2023-07-02T15:17:08;5.30;;;1.73;;
35679;SDS011;21803;53.586;10.040;2023-07-02T15:19:33;4.60;;;1.90;;
35679;SDS011;21803;53.586;10.040;2023-07-02T15:21:59;3.67;;;1.60;;
35679;SDS011;21803;53.586;10.040;2023-07-02T15:24:24;2.35;;;1.77;;
35679;SDS011;21803;53.586;10.040;2023-07-02T15:26:50;3.75;;;1.40;;
35679;SDS011;21803;53.586;10.040;2023-07-02T15:29:15;3.28;;;1.60;;
35679;SDS011;21803;53.586;10.040;2023-07-02T15:31:41;4.47;;;1.77;;
35679;SDS011;21803;53.586;10.040;2023-07-02T15:34:10;2.63;;;1.60;;
35679;SDS011;21803;53.586;10.040;2023-07-02T15:36:39;2.78;;;1.55;;
35679;SDS011;21803;53.586;10.040;2023-07-02T15:39:05;4.38;;;1.80;;
35679;SDS011;21803;53.586;10.040;2023-07-02T15:41:31;5.18;;;1.70;;
35679;SDS011;21803;53.586;10.040;2023-07-02T15:43:56;2.33;;;1.40;;
35679;SDS011;21803;53.586;10.040;2023-07-02T15:46:27;4.60;;;1.52;;
35679;SDS011;21803;53.586;10.040;2023-07-02T15:48:53;4.30;;;1.70;;
35679;SDS011;21803;53.586;10.040;2023-07-02T15:51:18;3.47;;;1.50;;
35679;SDS011;21803;53.586;10.040;2023-07-02T15:53:44;3.35;;;1.60;;
35679;SDS011;21803;53.586;10.040;2023-07-02T15:56:09;2.45;;;1.42;;
35679;SDS011;21803;53.586;10.040;2023-07-02T15:58:35;2.80;;;1.52;;
35679;SDS011;21803;53.586;10.040;2023-07-02T16:01:08;1.83;;;1.30;;
35679;SDS011;21803;53.586;10.040;2023-07-02T16:03:41;2.55;;;1.58;;
35679;SDS011;21803;53.586;10.040;2023-07-02T16:06:07;2.95;;;1.33;;
35679;SDS011;21803;53.586;10.040;2023-07-02T16:08:34;2.67;;;1.63;;
35679;SDS011;21803;53.586;10.040;2023-07-02T16:11:00;3.28;;;1.90;;
35679;SDS011;21803;53.586;10.040;2023-07-02T16:13:28;2.10;;;1.30;;
35679;SDS011;21803;53.586;10.040;2023-07-02T16:15:53;2.45;;;1.58;;
35679;SDS011;21803;53.586;10.040;2023-07-02T16:18:19;4.28;;;1.30;;
35679;SDS011;21803;53.586;10.040;2023-07-02T16:20:52;2.78;;;1.33;;
35679;SDS011;21803;53.586;10.040;2023-07-02T16:23:20;4.55;;;1.58;;
35679;SDS011;21803;53.586;10.040;2023-07-02T16:25:52;1.33;;;1.15;;
35679;SDS011;21803;53.586;10.040;2023-07-02T16:28:21;3.30;;;1.50;;
35679;SDS011;21803;53.586;10.040;2023-07-02T16:30:47;2.17;;;1.13;;
35679;SDS011;21803;53.586;10.040;2023-07-02T16:33:15;2.63;;;1.48;;
35679;SDS011;21803;53.586;10.040;2023-07-02T16:35:41;3.58;;;1.52;;
35679;SDS011;21803;53.586;10.040;2023-07-02T16:38:07;2.40;;;1.10;;
35679;SDS011;21803;53.586;10.040;2023-07-02T16:40:34;2.55;;;1.30;;
35679;SDS011;21803;53.586;10.040;2023-07-02T16:43:00;1.80;;;1.23;;
35679;SDS011;21803;53.586;10.040;2023-07-02T16:45:25;2.28;;;1.33;;
35679;SDS011;21803;53.586;10.040;2023-07-02T16:47:51;2.90;;;1.45;;
35679;SDS011;21803;53.586;10.040;2023-07-02T16:50:16;2.65;;;1.48;;
35679;SDS011;21803;53.586;10.040;2023-07-02T16:52:42;2.08;;;1.40;;
35679;SDS011;21803;53.586;10.040;2023-07-02T16:55:08;4.82;;;1.40;;
35679;SDS011;21803;53.586;10.040;2023-07-02T16:57:33;2.85;;;1.20;;
35679;SDS011;21803;53.586;10.040;2023-07-02T16:59:59;3.00;;;1.35;;
35679;SDS011;21803;53.586;10.040;2023-07-02T17:02:26;2.47;;;1.17;;
35679;SDS011;21803;53.586;10.040;2023-07-02T17:04:53;1.75;;;1.40;;
35679;SDS011;21803;53.586;10.040;2023-07-02T17:07:18;2.08;;;1.20;;
35679;SDS011;21803;53.586;10.040;2023-07-02T17:09:44;1.50;;;1.00;;
35679;SDS011;21803;53.586;10.040;2023-07-02T17:12:13;1.48;;;1.10;;
35679;SDS011;21803;53.586;10.040;2023-07-02T17:14:40;2.08;;;1.02;;
35679;SDS011;21803;53.586;10.040;2023-07-02T17:17:18;2.45;;;1.10;;
35679;SDS011;21803;53.586;10.040;2023-07-02T17:19:46;1.95;;;1.20;;
35679;SDS011;21803;53.586;10.040;2023-07-02T17:22:19;3.70;;;1.55;;
35679;SDS011;21803;53.586;10.040;2023-07-02T17:24:47;1.63;;;1.10;;
35679;SDS011;21803;53.586;10.040;2023-07-02T17:27:14;2.13;;;1.10;;
35679;SDS011;21803;53.586;10.040;2023-07-02T17:29:41;1.80;;;1.10;;
35679;SDS011;21803;53.586;10.040;2023-07-02T17:32:09;2.70;;;1.33;;
35679;SDS011;21803;53.586;10.040;2023-07-02T17:34:35;1.85;;;1.05;;
35679;SDS011;21803;53.586;10.040;2023-07-02T17:37:02;2.20;;;1.10;;
35679;SDS011;21803;53.586;10.040;2023-07-02T17:39:30;1.95;;;1.45;;
35679;SDS011;21803;53.586;10.040;2023-07-02T17:41:58;1.83;;;1.25;;
35679;SDS011;21803;53.586;10.040;2023-07-02T17:44:29;1.52;;;1.00;;
35679;SDS011;21803;53.586;10.040;2023-07-02T17:47:01;1.55;;;1.20;;
35679;SDS011;21803;53.586;10.040;2023-07-02T17:49:30;1.95;;;1.05;;
35679;SDS011;21803;53.586;10.040;2023-07-02T17:51:56;2.60;;;1.33;;
35679;SDS011;21803;53.586;10.040;2023-07-02T17:54:22;1.40;;;1.08;;
35679;SDS011;21803;53.586;10.040;2023-07-02T17:56:51;2.95;;;1.27;;
35679;SDS011;21803;53.586;10.040;2023-07-02T17:59:18;1.90;;;1.20;;
35679;SDS011;21803;53.586;10.040;2023-07-02T18:01:46;1.40;;;1.00;;
35679;SDS011;21803;53.586;10.040;2023-07-02T18:04:15;1.95;;;1.20;;
35679;SDS011;21803;53.586;10.040;2023-07-02T18:06:41;1.77;;;1.10;;
35679;SDS011;21803;53.586;10.040;2023-07-02T18:09:09;2.17;;;1.35;;
35679;SDS011;21803;53.586;10.040;2023-07-02T18:11:35;1.88;;;1.17;;
35679;SDS011;21803;53.586;10.040;2023-07-02T18:14:01;2.55;;;1.27;;
35679;SDS011;21803;53.586;10.040;2023-07-02T18:16:26;1.77;;;1.20;;
35679;SDS011;21803;53.586;10.040;2023-07-02T18:18:52;2.30;;;1.20;;
35679;SDS011;21803;53.586;10.040;2023-07-02T18:21:17;2.55;;;1.38;;
35679;SDS011;21803;53.586;10.040;2023-07-02T18:23:43;3.03;;;1.20;;
35679;SDS011;21803;53.586;10.040;2023-07-02T18:26:08;3.80;;;1.42;;
35679;SDS011;21803;53.586;10.040;2023-07-02T18:28:34;2.92;;;1.33;;
35679;SDS011;21803;53.586;10.040;2023-07-02T18:31:00;1.25;;;0.95;;
35679;SDS011;21803;53.586;10.040;2023-07-02T18:33:25;2.42;;;1.17;;
35679;SDS011;21803;53.586;10.040;2023-07-02T18:35:51;2.20;;;1.20;;